createdAt,value
2017-12-19T00:02:20.539Z,7.68
2017-12-19T00:04:53.585Z,7.76
2017-12-19T00:07:26.642Z,7.65
2017-12-19T00:09:58.237Z,7.68
2017-12-19T00:12:31.214Z,7.79
2017-12-19T00:15:05.069Z,7.68
2017-12-19T00:17:38.055Z,7.52
2017-12-19T00:20:09.526Z,7.48
2017-12-19T00:22:44.596Z,7.27
2017-12-19T00:25:16.841Z,7.36
2017-12-19T00:27:48.030Z,7.29
2017-12-19T00:30:19.623Z,7.20
2017-12-19T00:32:51.095Z,7.03
2017-12-19T00:35:21.427Z,7.07
2017-12-19T00:37:52.676Z,7.17
2017-12-19T00:40:28.627Z,7.15
2017-12-19T00:43:00.292Z,7.25
2017-12-19T00:45:31.939Z,7.03
2017-12-19T00:48:02.874Z,7.10
2017-12-19T00:50:34.262Z,7.04
2017-12-19T00:55:47.444Z,7.08
2017-12-19T00:58:17.705Z,7.10
2017-12-19T01:00:48.822Z,7.03
2017-12-19T01:03:20.227Z,7.14
2017-12-19T01:05:51.222Z,7.12
2017-12-19T01:08:22.184Z,6.85
2017-12-19T01:10:53.227Z,7.03
2017-12-19T01:13:24.482Z,7.06
2017-12-19T01:15:55.320Z,7.09
2017-12-19T01:18:26.123Z,6.90
2017-12-19T01:20:57.534Z,6.61
2017-12-19T01:23:28.614Z,6.76
2017-12-19T01:25:59.836Z,6.69
2017-12-19T01:28:31.279Z,6.71
2017-12-19T01:31:02.860Z,6.86
2017-12-19T01:33:34.896Z,6.92
2017-12-19T01:36:05.627Z,6.79
2017-12-19T01:38:36.390Z,6.87
2017-12-19T01:41:07.139Z,7.00
2017-12-19T01:43:40.108Z,7.04
2017-12-19T01:48:51.901Z,7.12
2017-12-19T01:51:22.481Z,7.21
2017-12-19T01:53:53.488Z,7.07
2017-12-19T01:56:26.221Z,7.09
2017-12-19T01:58:58.632Z,7.28
2017-12-19T02:01:30.582Z,7.42
2017-12-19T02:04:01.188Z,7.08
2017-12-19T02:06:33.399Z,6.91
2017-12-19T02:09:04.856Z,6.99
2017-12-19T02:11:37.522Z,6.76
2017-12-19T02:14:10.664Z,6.78
2017-12-19T02:16:43.314Z,6.93
2017-12-19T02:19:16.116Z,7.10
2017-12-19T02:21:48.377Z,7.11
2017-12-19T02:24:20.983Z,7.23
2017-12-19T02:26:54.192Z,7.32
2017-12-19T02:29:25.585Z,7.44
2017-12-19T02:31:57.950Z,7.50
2017-12-19T02:34:31.295Z,7.54
2017-12-19T02:37:02.571Z,7.58
2017-12-19T02:39:34.273Z,7.68
2017-12-19T02:42:05.383Z,7.69
2017-12-19T02:44:47.725Z,7.78
2017-12-19T02:47:19.799Z,7.83
2017-12-19T02:49:52.006Z,7.89
2017-12-19T02:52:24.865Z,7.98
2017-12-19T02:54:58.946Z,8.02
2017-12-19T02:57:32.515Z,8.02
2017-12-19T03:00:07.242Z,8.03
2017-12-19T03:02:39.430Z,8.09
2017-12-19T03:05:10.943Z,8.08
2017-12-19T03:07:43.481Z,8.08
2017-12-19T03:10:14.295Z,8.11
2017-12-19T03:12:44.957Z,8.08
2017-12-19T03:15:22.114Z,8.12
2017-12-19T03:17:53.929Z,8.12
2017-12-19T03:20:25.468Z,8.09
2017-12-19T03:22:57.529Z,8.17
2017-12-19T03:25:35.360Z,8.23
2017-12-19T03:28:06.861Z,8.34
2017-12-19T03:30:39.160Z,8.18
2017-12-19T03:33:09.991Z,8.15
2017-12-19T03:35:41.855Z,7.96
2017-12-19T03:38:13.475Z,8.13
2017-12-19T03:40:44.897Z,8.27
2017-12-19T03:43:16.401Z,8.20
2017-12-19T03:45:46.953Z,8.13
2017-12-19T03:48:17.835Z,8.07
2017-12-19T03:50:50.879Z,8.06
2017-12-19T03:53:27.477Z,7.95
2017-12-19T03:55:58.913Z,7.74
2017-12-19T03:58:31.312Z,7.86
2017-12-19T04:01:02.021Z,7.87
2017-12-19T04:03:34.107Z,7.97
2017-12-19T04:06:05.707Z,7.91
2017-12-19T04:08:37.520Z,7.67
2017-12-19T04:11:09.410Z,7.28
2017-12-19T04:13:41.087Z,7.41
2017-12-19T04:16:12.391Z,7.70
2017-12-19T04:18:43.877Z,7.62
2017-12-19T04:21:14.287Z,7.64
2017-12-19T04:23:45.623Z,7.71
2017-12-19T04:26:17.794Z,7.86
2017-12-19T04:28:49.724Z,7.98
2017-12-19T04:31:22.478Z,7.85
2017-12-19T04:33:53.416Z,7.73
2017-12-19T04:36:25.574Z,7.71
2017-12-19T04:38:56.738Z,7.74
2017-12-19T04:41:30.608Z,7.53
2017-12-19T04:44:03.616Z,7.73
2017-12-19T04:46:35.317Z,7.48
2017-12-19T04:49:06.550Z,7.56
2017-12-19T04:51:38.089Z,7.71
2017-12-19T04:54:08.956Z,7.51
2017-12-19T04:56:44.765Z,7.45
2017-12-19T04:59:16.099Z,7.53
2017-12-19T05:01:47.345Z,7.59
2017-12-19T05:04:20.101Z,7.68
2017-12-19T05:06:51.525Z,7.75
2017-12-19T05:09:23.045Z,7.70
2017-12-19T05:11:54.717Z,7.70
2017-12-19T05:14:26.780Z,7.74
2017-12-19T05:16:58.957Z,7.76
2017-12-19T05:19:29.386Z,7.60
2017-12-19T05:22:00.520Z,7.63
2017-12-19T05:24:39.051Z,7.68
2017-12-19T05:27:09.560Z,7.65
2017-12-19T05:29:40.005Z,7.61
2017-12-19T05:32:13.376Z,7.70
2017-12-19T05:34:44.206Z,7.86
2017-12-19T05:37:15.842Z,7.75
2017-12-19T05:39:47.473Z,7.62
2017-12-19T05:42:18.586Z,7.65
2017-12-19T05:44:49.281Z,7.71
2017-12-19T05:47:21.380Z,7.66
2017-12-19T05:49:52.434Z,7.71
2017-12-19T05:52:23.790Z,7.50
2017-12-19T05:54:54.626Z,7.69
2017-12-19T05:57:25.540Z,7.72
2017-12-19T05:59:57.082Z,7.94
2017-12-19T06:02:29.329Z,7.95
2017-12-19T06:05:00.186Z,7.89
2017-12-19T06:07:32.192Z,8.03
2017-12-19T06:10:03.601Z,7.90
2017-12-19T06:12:34.520Z,7.66
2017-12-19T06:15:08.683Z,7.34
2017-12-19T06:17:39.694Z,7.27
2017-12-19T06:20:11.684Z,7.27
2017-12-19T06:22:44.637Z,7.46
2017-12-19T06:25:19.256Z,7.52
2017-12-19T06:27:52.382Z,7.86
2017-12-19T06:30:24.039Z,7.93
2017-12-19T06:32:54.772Z,7.98
2017-12-19T06:35:27.256Z,7.94
2017-12-19T06:37:57.425Z,7.96
2017-12-19T06:40:30.242Z,8.05
2017-12-19T06:43:00.981Z,8.12
2017-12-19T06:45:32.028Z,8.20
2017-12-19T06:48:16.713Z,8.16
2017-12-19T06:50:47.129Z,8.10
2017-12-19T06:53:17.500Z,8.15
2017-12-19T06:55:48.834Z,8.16
2017-12-19T06:58:19.440Z,8.17
2017-12-19T07:00:49.858Z,7.90
2017-12-19T07:03:23.298Z,8.29
2017-12-19T07:05:55.553Z,8.29
2017-12-19T07:08:25.906Z,8.31
2017-12-19T07:10:56.985Z,8.29
2017-12-19T07:13:27.850Z,8.24
2017-12-19T07:15:58.710Z,8.28
2017-12-19T07:18:32.131Z,8.42
2017-12-19T07:21:03.391Z,8.13
2017-12-19T07:23:35.260Z,8.16
2017-12-19T07:26:05.625Z,8.31
2017-12-19T07:28:37.997Z,8.41
2017-12-19T07:31:08.883Z,8.42
2017-12-19T07:33:39.650Z,8.61
2017-12-19T07:36:09.938Z,8.67
2017-12-19T07:38:40.576Z,8.00
2017-12-19T07:41:12.403Z,7.81
2017-12-19T07:43:44.835Z,7.84
2017-12-19T07:46:15.401Z,8.06
2017-12-19T07:48:46.641Z,7.77
2017-12-19T07:51:17.335Z,7.77
2017-12-19T07:53:47.704Z,8.15
2017-12-19T07:56:24.083Z,8.34
2017-12-19T07:58:54.368Z,8.30
2017-12-19T08:01:25.249Z,8.41
2017-12-19T08:03:58.138Z,8.36
2017-12-19T08:06:28.986Z,8.29
2017-12-19T08:08:59.751Z,7.78
2017-12-19T08:11:31.933Z,7.62
2017-12-19T08:14:03.458Z,7.79
2017-12-19T08:16:50.049Z,7.68
2017-12-19T08:19:22.112Z,7.75
2017-12-19T08:21:52.397Z,7.80
2017-12-19T08:24:23.539Z,7.87
2017-12-19T08:26:57.507Z,7.87
2017-12-19T08:32:12.407Z,8.20
2017-12-19T08:34:43.011Z,8.33
2017-12-19T08:37:14.091Z,8.21
2017-12-19T08:39:52.593Z,8.08
2017-12-19T08:42:31.639Z,8.12
2017-12-19T08:45:05.284Z,7.78
2017-12-19T08:47:37.849Z,7.80
2017-12-19T08:50:08.361Z,7.44
2017-12-19T08:52:41.674Z,7.48
2017-12-19T08:55:13.376Z,7.62
2017-12-19T08:57:44.475Z,7.55
2017-12-19T09:00:22.165Z,7.64
2017-12-19T09:02:54.367Z,7.65
2017-12-19T09:05:27.237Z,7.66
2017-12-19T09:08:02.403Z,7.60
2017-12-19T09:10:35.855Z,7.84
2017-12-19T09:13:07.347Z,7.76
2017-12-19T09:15:43.263Z,7.54
2017-12-19T09:18:16.234Z,7.53
2017-12-19T09:20:47.450Z,7.83
2017-12-19T09:23:18.408Z,7.73
2017-12-19T09:25:49.425Z,7.72
2017-12-19T09:28:21.088Z,7.85
2017-12-19T09:30:51.769Z,8.15
2017-12-19T09:33:22.995Z,7.78
2017-12-19T09:35:54.072Z,7.76
2017-12-19T09:38:25.138Z,7.80
2017-12-19T09:40:55.695Z,7.92
2017-12-19T09:43:26.922Z,8.00
2017-12-19T09:45:57.944Z,8.04
2017-12-19T09:48:28.837Z,7.80
2017-12-19T09:51:00.925Z,8.14
2017-12-19T09:53:33.358Z,8.16
2017-12-19T09:56:07.377Z,8.34
2017-12-19T09:58:45.141Z,8.39
2017-12-19T10:01:16.891Z,8.15
2017-12-19T10:03:48.039Z,8.35
2017-12-19T10:06:23.489Z,8.32
2017-12-19T10:08:54.839Z,8.23
2017-12-19T10:11:25.696Z,8.22
2017-12-19T10:14:05.544Z,8.10
2017-12-19T10:16:38.325Z,8.02
2017-12-19T10:19:10.377Z,7.96
2017-12-19T10:21:42.260Z,8.13
2017-12-19T10:24:13.037Z,8.28
2017-12-19T10:26:43.622Z,8.34
2017-12-19T10:29:15.136Z,8.26
2017-12-19T10:31:47.437Z,8.40
2017-12-19T10:34:20.165Z,8.32
2017-12-19T10:36:50.997Z,8.23
2017-12-19T10:39:22.837Z,8.50
2017-12-19T10:41:53.591Z,8.41
2017-12-19T10:44:25.692Z,8.52
2017-12-19T10:46:59.603Z,8.56
2017-12-19T10:49:31.352Z,8.80
2017-12-19T10:52:03.723Z,8.75
2017-12-19T10:54:34.415Z,9.03
2017-12-19T10:57:04.991Z,9.01
2017-12-19T10:59:42.988Z,8.91
2017-12-19T11:02:14.442Z,8.95
2017-12-19T11:04:47.330Z,9.20
2017-12-19T11:07:19.575Z,9.45
2017-12-19T11:09:50.855Z,9.58
2017-12-19T11:12:22.960Z,9.43
2017-12-19T11:14:54.638Z,9.35
2017-12-19T11:17:38.152Z,9.30
2017-12-19T11:20:10.488Z,9.26
2017-12-19T11:22:44.128Z,9.46
2017-12-19T11:25:19.424Z,9.53
2017-12-19T11:27:57.873Z,9.56
2017-12-19T11:30:34.296Z,9.43
2017-12-19T11:33:17.969Z,9.53
2017-12-19T11:35:51.184Z,9.46
2017-12-19T11:38:31.421Z,9.55
2017-12-19T11:41:06.633Z,9.47
2017-12-19T11:43:43.152Z,9.67
2017-12-19T11:46:19.585Z,9.54
2017-12-19T11:48:54.731Z,9.52
2017-12-19T11:51:34.519Z,9.61
2017-12-19T11:54:12.091Z,9.77
2017-12-19T11:56:46.886Z,9.95
2017-12-19T11:59:24.490Z,9.79
2017-12-19T12:02:01.880Z,9.93
2017-12-19T12:04:40.970Z,10.03
2017-12-19T12:07:15.716Z,10.16
2017-12-19T12:09:51.180Z,10.14
2017-12-19T12:12:29.359Z,10.00
2017-12-19T12:15:18.044Z,9.75
2017-12-19T12:20:50.970Z,9.96
2017-12-19T12:23:33.664Z,10.15
2017-12-19T12:26:11.682Z,9.99
2017-12-19T12:28:51.197Z,9.90
2017-12-19T12:31:33.514Z,9.97
2017-12-19T12:34:11.782Z,10.08
2017-12-19T12:37:03.224Z,10.10
2017-12-19T12:39:47.249Z,10.19
2017-12-19T12:42:25.825Z,10.38
2017-12-19T12:45:07.985Z,10.40
2017-12-19T12:47:42.633Z,10.43
2017-12-19T12:50:14.706Z,10.54
2017-12-19T12:52:50.091Z,10.34
2017-12-19T12:55:21.728Z,10.22
2017-12-19T12:57:54.470Z,10.24
2017-12-19T13:00:28.614Z,10.10
2017-12-19T13:03:03.273Z,10.34
2017-12-19T13:05:38.432Z,10.41
2017-12-19T13:08:17.113Z,10.37
2017-12-19T13:10:51.075Z,10.41
2017-12-19T13:13:22.272Z,10.45
2017-12-19T13:15:58.529Z,10.49
2017-12-19T13:18:32.185Z,10.40
2017-12-19T13:21:05.647Z,10.48
2017-12-19T13:23:41.364Z,10.36
2017-12-19T13:26:19.192Z,10.51
2017-12-19T13:28:58.846Z,10.48
2017-12-19T13:31:38.236Z,10.24
2017-12-19T13:34:12.304Z,10.31
2017-12-19T13:36:52.370Z,10.48
2017-12-19T13:39:28.396Z,10.48
2017-12-19T13:42:02.109Z,10.36
2017-12-19T13:44:35.532Z,10.45
2017-12-19T13:47:09.443Z,10.61
2017-12-19T13:49:45.021Z,10.41
2017-12-19T13:52:17.483Z,10.38
2017-12-19T13:54:49.923Z,10.49
2017-12-19T13:57:21.834Z,10.35
2017-12-19T13:59:53.781Z,10.55
2017-12-19T14:02:26.129Z,10.54
2017-12-19T14:04:57.763Z,10.39
2017-12-19T14:07:30.345Z,10.38
2017-12-19T14:10:02.448Z,10.35
2017-12-19T14:12:34.316Z,10.45
2017-12-19T14:15:15.051Z,10.41
2017-12-19T14:17:57.775Z,10.29
2017-12-19T14:20:29.918Z,10.32
2017-12-19T14:23:02.105Z,10.21
2017-12-19T14:25:33.397Z,10.32
2017-12-19T14:28:05.742Z,10.34
2017-12-19T14:30:39.794Z,10.43
2017-12-19T14:33:12.038Z,10.53
2017-12-19T14:35:44.237Z,10.49
2017-12-19T14:38:15.446Z,10.50
2017-12-19T14:40:47.534Z,10.34
2017-12-19T14:43:28.635Z,10.46
2017-12-19T14:46:01.870Z,10.55
2017-12-19T14:48:35.794Z,10.64
2017-12-19T14:51:09.593Z,10.58
2017-12-19T14:53:42.457Z,10.53
2017-12-19T14:56:14.754Z,10.51
2017-12-19T14:58:46.539Z,10.56
2017-12-19T15:01:18.916Z,10.65
2017-12-19T15:03:49.883Z,10.45
2017-12-19T15:06:22.653Z,10.52
2017-12-19T15:08:54.940Z,10.54
2017-12-19T15:11:27.395Z,10.44
2017-12-19T15:14:00.140Z,10.38
2017-12-19T15:16:33.269Z,10.52
2017-12-19T15:19:04.261Z,10.56
2017-12-19T15:21:35.587Z,10.59
2017-12-19T15:24:07.190Z,10.29
2017-12-19T15:26:40.277Z,10.27
2017-12-19T15:29:11.726Z,10.28
2017-12-19T15:31:43.509Z,10.25
2017-12-19T15:34:17.785Z,10.18
2017-12-19T15:36:50.814Z,10.00
2017-12-19T15:39:24.071Z,10.14
2017-12-19T15:41:57.056Z,10.22
2017-12-19T15:44:34.130Z,10.24
2017-12-19T15:47:09.333Z,10.06
2017-12-19T15:49:43.191Z,10.05
2017-12-19T15:52:17.737Z,10.22
2017-12-19T15:54:49.985Z,10.24
2017-12-19T15:57:22.173Z,10.29
2017-12-19T16:00:00.491Z,10.32
2017-12-19T16:02:38.253Z,10.35
2017-12-19T16:05:10.496Z,10.27
2017-12-19T16:07:41.581Z,10.35
2017-12-19T16:10:15.648Z,10.30
2017-12-19T16:12:49.230Z,10.33
2017-12-19T16:15:22.168Z,10.22
2017-12-19T16:17:54.586Z,10.15
2017-12-19T16:20:27.452Z,10.00
2017-12-19T16:23:10.750Z,10.03
2017-12-19T16:25:44.725Z,10.22
2017-12-19T16:28:19.407Z,10.02
2017-12-19T16:30:54.119Z,9.94
2017-12-19T16:33:29.826Z,10.03
2017-12-19T16:36:10.204Z,10.02
2017-12-19T16:38:44.927Z,9.95
2017-12-19T16:41:37.293Z,10.01
2017-12-19T16:44:10.156Z,9.91
2017-12-19T16:46:43.258Z,9.72
2017-12-19T16:49:17.282Z,9.90
2017-12-19T16:51:52.822Z,9.78
2017-12-19T16:54:47.512Z,9.99
2017-12-19T16:57:21.267Z,10.07
2017-12-19T16:59:56.734Z,10.00
2017-12-19T17:02:31.148Z,10.02
2017-12-19T17:05:02.320Z,9.76
2017-12-19T17:10:04.393Z,9.83
2017-12-19T17:12:35.615Z,10.00
2017-12-19T17:15:09.683Z,9.98
2017-12-19T17:17:45.724Z,10.07
2017-12-19T17:20:20.419Z,9.98
2017-12-19T17:22:51.919Z,9.98
2017-12-19T17:25:23.386Z,9.94
2017-12-19T17:27:55.625Z,9.76
2017-12-19T17:30:27.508Z,9.68
2017-12-19T17:33:02.660Z,9.70
2017-12-19T17:35:34.899Z,9.76
2017-12-19T17:38:10.166Z,9.77
2017-12-19T17:40:43.947Z,9.67
2017-12-19T17:43:20.818Z,9.53
2017-12-19T17:45:52.794Z,9.54
2017-12-19T17:48:27.746Z,9.56
2017-12-19T17:50:59.696Z,9.49
2017-12-19T17:53:31.714Z,9.48
2017-12-19T17:56:03.587Z,9.52
2017-12-19T17:58:38.494Z,9.66
2017-12-19T18:01:09.348Z,9.49
2017-12-19T18:03:41.429Z,9.41
2017-12-19T18:06:13.468Z,9.27
2017-12-19T18:08:44.965Z,9.30
2017-12-19T18:11:16.965Z,9.34
2017-12-19T18:13:49.342Z,9.33
2017-12-19T18:16:24.299Z,9.28
2017-12-19T18:18:58.688Z,9.36
2017-12-19T18:21:31.260Z,9.22
2017-12-19T18:24:03.156Z,9.33
2017-12-19T18:26:35.127Z,9.37
2017-12-19T18:29:08.980Z,9.39
2017-12-19T18:31:48.497Z,9.24
2017-12-19T18:34:21.151Z,9.00
2017-12-19T18:36:54.567Z,9.08
2017-12-19T18:39:28.265Z,9.02
2017-12-19T18:41:59.632Z,9.08
2017-12-19T18:44:33.998Z,9.17
2017-12-19T18:47:09.003Z,9.16
2017-12-19T18:49:47.794Z,9.15
2017-12-19T18:52:20.116Z,9.19
2017-12-19T18:54:52.190Z,9.12
2017-12-19T18:57:24.001Z,9.19
2017-12-19T18:59:54.453Z,9.16
2017-12-19T19:02:25.520Z,9.19
2017-12-19T19:04:57.130Z,9.26
2017-12-19T19:07:30.699Z,9.26
2017-12-19T19:10:01.190Z,9.08
2017-12-19T19:12:34.388Z,9.08
2017-12-19T19:15:14.370Z,9.03
2017-12-19T19:17:44.901Z,9.03
2017-12-19T19:20:16.003Z,9.08
2017-12-19T19:22:46.274Z,9.01
2017-12-19T19:25:16.892Z,8.97
2017-12-19T19:27:47.896Z,8.85
2017-12-19T19:30:18.663Z,8.89
2017-12-19T19:33:19.772Z,8.88
2017-12-19T19:35:53.163Z,8.86
2017-12-19T19:38:23.461Z,8.92
2017-12-19T19:40:54.451Z,8.98
2017-12-19T19:43:25.428Z,9.01
2017-12-19T19:48:34.068Z,9.01
2017-12-19T19:51:08.678Z,9.07
2017-12-19T19:53:40.294Z,9.17
2017-12-19T19:56:11.756Z,9.27
2017-12-19T19:58:42.028Z,9.11
2017-12-19T20:01:12.650Z,9.10
2017-12-19T20:03:43.004Z,9.11
2017-12-19T20:06:13.246Z,8.98
2017-12-19T20:08:44.464Z,8.89
2017-12-19T20:11:15.484Z,8.95
2017-12-19T20:13:45.995Z,8.83
2017-12-19T20:16:16.683Z,8.91
2017-12-19T20:18:47.781Z,8.90
2017-12-19T20:21:18.926Z,8.88
2017-12-19T20:23:49.982Z,8.73
2017-12-19T20:26:20.288Z,8.78
2017-12-19T20:28:51.423Z,8.54
2017-12-19T20:31:22.482Z,8.48
2017-12-19T20:33:56.786Z,8.48
2017-12-19T20:36:28.644Z,8.44
2017-12-19T20:39:03.327Z,8.36
2017-12-19T20:41:35.049Z,8.42
2017-12-19T20:44:17.972Z,8.39
2017-12-19T20:46:50.061Z,8.41
2017-12-19T20:49:20.799Z,8.47
2017-12-19T20:51:51.071Z,8.42
2017-12-19T20:54:21.447Z,8.38
2017-12-19T20:56:53.416Z,8.43
2017-12-19T20:59:24.184Z,8.43
2017-12-19T21:01:55.464Z,8.53
2017-12-19T21:04:26.826Z,8.75
2017-12-19T21:06:57.411Z,8.74
2017-12-19T21:09:28.296Z,8.79
2017-12-19T21:11:59.303Z,8.72
2017-12-19T21:14:30.372Z,8.63
2017-12-19T21:17:01.729Z,8.64
2017-12-19T21:19:32.797Z,8.70
2017-12-19T21:22:03.907Z,8.72
2017-12-19T21:24:38.765Z,8.63
2017-12-19T21:27:09.354Z,8.64
2017-12-19T21:29:40.909Z,8.58
2017-12-19T21:32:14.558Z,8.65
2017-12-19T21:34:45.439Z,8.69
2017-12-19T21:37:16.676Z,8.77
2017-12-19T21:39:47.063Z,8.56
2017-12-19T21:42:17.876Z,8.62
2017-12-19T21:44:48.288Z,8.89
2017-12-19T21:47:23.831Z,8.89
2017-12-19T21:49:55.979Z,8.95
2017-12-19T21:52:26.812Z,9.00
2017-12-19T21:54:57.352Z,8.77
2017-12-19T21:57:28.510Z,8.82
2017-12-19T21:59:58.850Z,8.86
2017-12-19T22:02:30.019Z,8.88
2017-12-19T22:05:01.649Z,8.97
2017-12-19T22:07:31.946Z,8.87
2017-12-19T22:10:02.925Z,8.77
2017-12-19T22:12:35.690Z,8.84
2017-12-19T22:15:07.302Z,8.76
2017-12-19T22:17:38.167Z,8.69
2017-12-19T22:20:09.385Z,8.64
2017-12-19T22:22:41.051Z,8.62
2017-12-19T22:25:11.799Z,8.74
2017-12-19T22:27:48.911Z,8.84
2017-12-19T22:30:19.394Z,8.86
2017-12-19T22:32:49.859Z,8.63
2017-12-19T22:35:20.303Z,8.64
2017-12-19T22:37:51.764Z,8.65
2017-12-19T22:40:22.431Z,8.55
2017-12-19T22:42:52.875Z,8.50
2017-12-19T22:45:24.532Z,8.54
2017-12-19T22:47:57.395Z,8.68
2017-12-19T22:50:27.797Z,8.65
2017-12-19T22:52:59.841Z,8.76
2017-12-19T22:55:31.584Z,8.70
2017-12-19T22:58:03.934Z,8.90
2017-12-19T23:00:36.365Z,9.06
2017-12-19T23:03:07.184Z,9.12
2017-12-19T23:05:37.537Z,9.24
2017-12-19T23:08:16.774Z,9.10
2017-12-19T23:10:47.102Z,9.01
2017-12-19T23:13:17.294Z,8.95
2017-12-19T23:15:47.945Z,8.96
2017-12-19T23:18:18.252Z,8.84
2017-12-19T23:20:49.649Z,8.81
2017-12-19T23:23:20.646Z,8.74
2017-12-19T23:25:51.329Z,8.70
2017-12-19T23:28:21.806Z,8.76
2017-12-19T23:30:52.606Z,8.78
2017-12-19T23:33:23.143Z,8.84
2017-12-19T23:35:53.684Z,8.81
2017-12-19T23:38:24.467Z,8.85
2017-12-19T23:40:54.992Z,8.79
2017-12-19T23:43:25.544Z,8.91
2017-12-19T23:45:56.342Z,9.01
2017-12-19T23:48:27.431Z,9.00
2017-12-19T23:50:58.153Z,9.12
2017-12-19T23:53:28.704Z,9.19
2017-12-19T23:55:59.193Z,9.38
2017-12-19T23:58:30.726Z,9.48
